Sirius — V7KI6 — position and weather

sailwx.info

Track history (hours):
 
Tides and Currents Weather Stations Pressure Air Temp Water Temp Dewpoint Dewpoint Depression Visibility Wind Speed Wind Dir Waves Ship Positions

Sirius

Last reported at 2016-Apr-28 19:08 UTC. Time now 2016-Apr-29 08:17 UTC.
Position N 34°48' E 022°40'.

Length 178.1 m; beam 28.2 m; draft 11.5 m.

Type: Cargo ship. MMSI: 538090245.

Date/timePositionNaut miles runAvg speedWind from/ knotsBaromVisibWave heightAir tempDewpointWater temp
2016-Apr-28 19:08N 34°48' E 022°40'1118.1
2016-Apr-28 18:33N 34°47' E 022°53'1818.1
2016-Apr-28 17:33N 34°46' E 023°15'47517.4
2016-Apr-27 14:19N 35°47' E 032°52'94 3.6
2016-Apr-26 12:17N 36°16' E 034°42'1318.2
2016-Apr-26 11:33N 36°03' E 034°45'1818.1
2016-Apr-26 10:33N 35°45' E 034°48'1817.7
2016-Apr-26 09:31N 35°27' E 034°52'2017.9
2016-Apr-26 08:25N 35°08' E 034°56'1717.9
2016-Apr-26 07:30N 34°51' E 034°59'1718.1
2016-Apr-26 06:33N 34°35' E 035°02'1818.1
2016-Apr-26 05:34N 34°17' E 035°06'1917.8
2016-Apr-26 04:30N 33°59' E 035°11'18 6.0
2016-Apr-26 01:32N 33°55' E 035°32'0 0.0
2016-Apr-25 12:32N 33°55' E 035°32'0 0.0
2016-Apr-25 11:14N 33°55' E 035°32'0 0.0
2016-Apr-25 10:23N 33°55' E 035°32'1 1.5
2016-Apr-25 09:33N 33°55' E 035°31'7 7.4
2016-Apr-25 08:33N 33°55' E 035°22'1717.1
2016-Apr-25 07:33N 33°57' E 035°02'1817.8
2016-Apr-25 06:33N 34°03' E 034°42'1817.9
2016-Apr-25 05:33N 34°08' E 034°21'2117.9
2016-Apr-25 04:23N 34°14' E 033°57'1518.0
2016-Apr-25 03:32N 34°19' E 033°39'1818.8
2016-Apr-25 02:34N 34°24' E 033°17'1918.5
2016-Apr-25 01:33N 34°29' E 032°56'1818.0
2016-Apr-25 00:33N 34°35' E 032°35'  
2016-Apr-22 12:33N 36°35' E 034°40'63 3.2
2016-Apr-21 16:33N 35°32' E 034°46'1918.0
2016-Apr-21 15:31N 35°14' E 034°52'2218.3
2016-Apr-21 14:20N 34°53' E 034°57'1418.0
2016-Apr-21 13:33N 34°39' E 035°01'2218.0
2016-Apr-21 12:20N 34°17' E 035°06'1418.0
2016-Apr-21 11:34N 34°04' E 035°11'1414.3
2016-Apr-21 10:34N 33°55' E 035°25'4 0.2
2016-Apr-20 11:34N 33°55' E 035°19'1312.8
2016-Apr-20 10:33N 34°06' E 035°11'1918.1
2016-Apr-20 09:30N 34°25' E 035°15'71 5.1
2016-Apr-19 19:31N 35°32' E 035°46'0 0.0
2016-Apr-19 17:25N 35°32' E 035°46'0 0.0
2016-Apr-19 16:22N 35°32' E 035°46'0 0.0
2016-Apr-19 15:31N 35°32' E 035°46'0 0.2
2016-Apr-19 14:27N 35°31' E 035°46'8 8.2
2016-Apr-19 13:32N 35°32' E 035°37'1414.0
2016-Apr-19 12:30N 35°29' E 035°19'1 0.4
2016-Apr-19 10:26N 35°29' E 035°20'0 0.4
2016-Apr-19 09:34N 35°30' E 035°20'0 0.5
2016-Apr-19 08:33N 35°30' E 035°21'1 0.6
2016-Apr-19 07:33N 35°30' E 035°21'0 0.5
2016-Apr-19 06:34N 35°31' E 035°22'1 0.4
2016-Apr-19 04:34N 35°31' E 035°22'0 0.1
2016-Apr-19 01:33N 35°31' E 035°22'0 0.4
2016-Apr-19 00:34N 35°31' E 035°21'1 0.6
2016-Apr-18 23:34N 35°30' E 035°21'1 0.6
2016-Apr-18 22:33N 35°30' E 035°21'1 0.6
2016-Apr-18 21:34N 35°30' E 035°20'6 4.3
2016-Apr-18 20:16N 35°25' E 035°16'1318.5
2016-Apr-18 19:33N 35°12' E 035°14'  
Track history (hours):
 
Tides and Currents Weather Stations Pressure Air Temp Water Temp Dewpoint Dewpoint Depression Visibility Wind Speed Wind Dir Waves Ship Positions

Sirius

Last reported at 2016-Apr-28 19:08 UTC. Time now 2016-Apr-29 08:17 UTC.
Position N 34°48' E 022°40'.

Length 178.1 m; beam 28.2 m; draft 11.5 m.

Type: Cargo ship. MMSI: 538090245.

Date/timePositionNaut miles runAvg speedWind from/ knotsBaromVisibWave heightAir tempDewpointWater temp
2016-Apr-28 19:08N 34°48' E 022°40'1118.1
2016-Apr-28 18:33N 34°47' E 022°53'1818.1
2016-Apr-28 17:33N 34°46' E 023°15'47517.4
2016-Apr-27 14:19N 35°47' E 032°52'94 3.6
2016-Apr-26 12:17N 36°16' E 034°42'1318.2
2016-Apr-26 11:33N 36°03' E 034°45'1818.1
2016-Apr-26 10:33N 35°45' E 034°48'1817.7
2016-Apr-26 09:31N 35°27' E 034°52'2017.9
2016-Apr-26 08:25N 35°08' E 034°56'1717.9
2016-Apr-26 07:30N 34°51' E 034°59'1718.1
2016-Apr-26 06:33N 34°35' E 035°02'1818.1
2016-Apr-26 05:34N 34°17' E 035°06'1917.8
2016-Apr-26 04:30N 33°59' E 035°11'18 6.0
2016-Apr-26 01:32N 33°55' E 035°32'0 0.0
2016-Apr-25 12:32N 33°55' E 035°32'0 0.0
2016-Apr-25 11:14N 33°55' E 035°32'0 0.0
2016-Apr-25 10:23N 33°55' E 035°32'1 1.5
2016-Apr-25 09:33N 33°55' E 035°31'7 7.4
2016-Apr-25 08:33N 33°55' E 035°22'1717.1
2016-Apr-25 07:33N 33°57' E 035°02'1817.8
2016-Apr-25 06:33N 34°03' E 034°42'1817.9
2016-Apr-25 05:33N 34°08' E 034°21'2117.9
2016-Apr-25 04:23N 34°14' E 033°57'1518.0
2016-Apr-25 03:32N 34°19' E 033°39'1818.8
2016-Apr-25 02:34N 34°24' E 033°17'1918.5
2016-Apr-25 01:33N 34°29' E 032°56'1818.0
2016-Apr-25 00:33N 34°35' E 032°35'  
2016-Apr-22 12:33N 36°35' E 034°40'63 3.2
2016-Apr-21 16:33N 35°32' E 034°46'1918.0
2016-Apr-21 15:31N 35°14' E 034°52'2218.3
2016-Apr-21 14:20N 34°53' E 034°57'1418.0
2016-Apr-21 13:33N 34°39' E 035°01'2218.0
2016-Apr-21 12:20N 34°17' E 035°06'1418.0
2016-Apr-21 11:34N 34°04' E 035°11'1414.3
2016-Apr-21 10:34N 33°55' E 035°25'4 0.2
2016-Apr-20 11:34N 33°55' E 035°19'1312.8
2016-Apr-20 10:33N 34°06' E 035°11'1918.1
2016-Apr-20 09:30N 34°25' E 035°15'71 5.1
2016-Apr-19 19:31N 35°32' E 035°46'0 0.0
2016-Apr-19 17:25N 35°32' E 035°46'0 0.0
2016-Apr-19 16:22N 35°32' E 035°46'0 0.0
2016-Apr-19 15:31N 35°32' E 035°46'0 0.2
2016-Apr-19 14:27N 35°31' E 035°46'8 8.2
2016-Apr-19 13:32N 35°32' E 035°37'1414.0
2016-Apr-19 12:30N 35°29' E 035°19'1 0.4
2016-Apr-19 10:26N 35°29' E 035°20'0 0.4
2016-Apr-19 09:34N 35°30' E 035°20'0 0.5
2016-Apr-19 08:33N 35°30' E 035°21'1 0.6
2016-Apr-19 07:33N 35°30' E 035°21'0 0.5
2016-Apr-19 06:34N 35°31' E 035°22'1 0.4
2016-Apr-19 04:34N 35°31' E 035°22'0 0.1
2016-Apr-19 01:33N 35°31' E 035°22'0 0.4
2016-Apr-19 00:34N 35°31' E 035°21'1 0.6
2016-Apr-18 23:34N 35°30' E 035°21'1 0.6
2016-Apr-18 22:33N 35°30' E 035°21'1 0.6
2016-Apr-18 21:34N 35°30' E 035°20'6 4.3
2016-Apr-18 20:16N 35°25' E 035°16'1318.5
2016-Apr-18 19:33N 35°12' E 035°14'  

Dump ship's entire track history